createdAt,value
2023-02-08T00:01:07.872Z,21.40
2023-02-08T00:03:35.675Z,17.83
2023-02-08T00:06:03.490Z,20.60
2023-02-08T00:08:31.968Z,21.93
2023-02-08T00:10:59.614Z,21.83
2023-02-08T00:13:28.623Z,19.87
2023-02-08T00:15:56.494Z,22.87
2023-02-08T00:18:24.668Z,19.57
2023-02-08T00:20:52.787Z,21.57
2023-02-08T00:23:20.516Z,20.67
2023-02-08T00:25:48.106Z,18.43
2023-02-08T00:28:17.808Z,19.33
2023-02-08T00:30:47.043Z,20.97
2023-02-08T00:33:14.764Z,18.93
2023-02-08T00:35:42.518Z,21.67
2023-02-08T00:38:10.142Z,23.00
2023-02-08T00:40:38.325Z,20.37
2023-02-08T00:43:06.850Z,20.90
2023-02-08T00:45:34.899Z,20.40
2023-02-08T00:48:03.908Z,20.93
2023-02-08T00:50:31.526Z,20.40
2023-02-08T00:52:59.473Z,19.97
2023-02-08T00:55:27.088Z,19.93
2023-02-08T00:57:57.051Z,19.07
2023-02-08T01:00:24.676Z,17.90
2023-02-08T01:02:52.231Z,18.87
2023-02-08T01:05:23.690Z,19.77
2023-02-08T01:07:51.267Z,17.17
2023-02-08T01:10:19.125Z,21.07
2023-02-08T01:12:46.769Z,19.30
2023-02-08T01:15:14.323Z,19.73
2023-02-08T01:17:42.076Z,18.47
2023-02-08T01:20:10.917Z,18.40
2023-02-08T01:22:39.782Z,18.83
2023-02-08T01:25:07.338Z,19.27
2023-02-08T01:27:34.940Z,20.47
2023-02-08T01:30:02.567Z,17.83
2023-02-08T01:32:30.154Z,18.00
2023-02-08T01:34:57.778Z,20.27
2023-02-08T01:37:25.424Z,18.93
2023-02-08T01:39:54.339Z,18.43
2023-02-08T01:42:22.236Z,18.90
2023-02-08T01:45:23.374Z,17.77
2023-02-08T01:47:54.905Z,20.07
2023-02-08T01:50:25.077Z,20.73
2023-02-08T01:52:52.876Z,18.70
2023-02-08T01:55:24.697Z,21.43
2023-02-08T01:57:57.552Z,21.03
2023-02-08T02:00:25.617Z,19.60
2023-02-08T02:02:56.323Z,20.23
2023-02-08T02:05:27.294Z,21.17
2023-02-08T02:07:56.662Z,17.73
2023-02-08T02:10:27.760Z,19.67
2023-02-08T02:12:58.010Z,20.10
2023-02-08T02:15:25.693Z,20.20
2023-02-08T02:17:53.340Z,18.27
2023-02-08T02:20:30.755Z,19.27
2023-02-08T02:23:40.589Z,18.17
2023-02-08T02:26:42.115Z,17.17
2023-02-08T02:29:28.125Z,17.23
2023-02-08T02:32:26.706Z,18.77
2023-02-08T02:35:03.625Z,19.30
2023-02-08T02:37:49.072Z,17.20
2023-02-08T02:40:26.172Z,17.77
2023-02-08T02:43:24.056Z,17.50
2023-02-08T02:46:01.513Z,17.13
2023-02-08T02:48:39.499Z,17.47
2023-02-08T02:51:10.844Z,20.80
2023-02-08T02:53:45.608Z,18.33
2023-02-08T02:56:16.405Z,17.07
2023-02-08T02:58:45.369Z,17.87
2023-02-08T03:01:13.808Z,19.33
2023-02-08T03:03:42.750Z,18.57
2023-02-08T03:06:15.654Z,18.90
2023-02-08T03:08:56.577Z,17.87
2023-02-08T03:11:27.394Z,17.83
2023-02-08T03:14:05.807Z,17.53
2023-02-08T03:16:45.597Z,18.03
2023-02-08T03:19:23.461Z,16.83
2023-02-08T03:21:58.272Z,16.33
2023-02-08T03:24:30.872Z,17.63
2023-02-08T03:27:03.947Z,16.90
2023-02-08T03:29:45.026Z,16.47
2023-02-08T03:32:18.429Z,16.87
2023-02-08T03:34:55.163Z,18.10
2023-02-08T03:37:27.142Z,17.80
2023-02-08T03:39:59.838Z,16.83
2023-02-08T03:42:29.102Z,17.37
2023-02-08T03:45:00.439Z,16.70
2023-02-08T03:47:31.376Z,19.00
2023-02-08T03:50:05.852Z,19.20
2023-02-08T03:52:33.979Z,17.37
2023-02-08T03:55:05.321Z,18.27
2023-02-08T03:57:38.795Z,16.90
2023-02-08T04:00:12.256Z,17.13
2023-02-08T04:02:44.979Z,17.43
2023-02-08T04:05:14.653Z,17.77
2023-02-08T04:07:42.786Z,17.80
2023-02-08T04:10:10.679Z,19.90
2023-02-08T04:12:38.497Z,20.93
2023-02-08T04:15:06.800Z,20.00
2023-02-08T04:17:34.502Z,18.83
2023-02-08T04:20:02.136Z,19.63
2023-02-08T04:22:31.129Z,19.03
2023-02-08T04:24:59.753Z,19.43
2023-02-08T04:27:27.510Z,21.13
2023-02-08T04:29:55.199Z,18.90
2023-02-08T04:32:23.331Z,20.37
2023-02-08T04:34:52.105Z,20.43
2023-02-08T04:37:19.756Z,18.00
2023-02-08T04:39:48.816Z,19.50
2023-02-08T04:42:16.859Z,21.20
2023-02-08T04:44:44.524Z,20.90
2023-02-08T04:47:12.224Z,18.50
2023-02-08T04:49:39.939Z,17.97
2023-02-08T04:52:08.004Z,18.77
2023-02-08T04:54:35.689Z,16.63
2023-02-08T04:57:04.852Z,19.53
2023-02-08T04:59:32.586Z,17.90
2023-02-08T05:02:00.438Z,17.73
2023-02-08T05:04:28.285Z,17.80
2023-02-08T05:06:55.921Z,19.03
2023-02-08T05:09:23.486Z,16.67
2023-02-08T05:11:51.203Z,19.33
2023-02-08T05:14:20.222Z,18.03
2023-02-08T05:16:47.826Z,16.57
2023-02-08T05:19:15.408Z,16.90
2023-02-08T05:21:43.063Z,18.37
2023-02-08T05:24:12.681Z,16.77
2023-02-08T05:26:40.723Z,17.07
2023-02-08T05:29:09.179Z,14.77
2023-02-08T05:31:38.365Z,16.47
2023-02-08T05:34:06.048Z,17.90
2023-02-08T05:36:33.694Z,15.70
2023-02-08T05:39:01.324Z,15.70
2023-02-08T05:41:28.940Z,17.40
2023-02-08T05:43:56.564Z,15.30
2023-02-08T05:46:25.437Z,16.53
2023-02-08T05:48:54.410Z,17.73
2023-02-08T05:51:22.182Z,18.13
2023-02-08T05:53:49.858Z,18.50
2023-02-08T05:56:17.517Z,18.13
2023-02-08T05:58:45.323Z,20.50
2023-02-08T06:01:14.148Z,20.27
2023-02-08T06:03:42.385Z,20.27
2023-02-08T06:06:11.758Z,21.40
2023-02-08T06:08:39.918Z,22.47
2023-02-08T06:11:07.873Z,17.80
2023-02-08T06:13:36.292Z,19.43
2023-02-08T06:16:03.984Z,18.83
2023-02-08T06:18:31.692Z,17.93
2023-02-08T06:20:59.366Z,20.23
2023-02-08T06:23:28.651Z,17.27
2023-02-08T06:25:56.286Z,19.50
2023-02-08T06:28:24.096Z,19.50
2023-02-08T06:30:54.299Z,19.10
2023-02-08T06:33:21.972Z,17.83
2023-02-08T06:35:53.064Z,18.70
2023-02-08T06:38:21.474Z,17.67
2023-02-08T06:40:51.171Z,19.43
2023-02-08T06:43:19.359Z,19.47
2023-02-08T06:45:47.754Z,24.30
2023-02-08T06:48:16.027Z,21.10
2023-02-08T06:50:44.041Z,18.33
2023-02-08T06:53:12.052Z,20.40
2023-02-08T06:55:39.748Z,17.93
2023-02-08T06:58:08.675Z,19.87
2023-02-08T07:00:38.548Z,20.50
2023-02-08T07:03:06.349Z,21.77
2023-02-08T07:05:38.333Z,22.70
2023-02-08T07:08:06.590Z,18.90
2023-02-08T07:10:34.782Z,19.77
2023-02-08T07:13:03.438Z,18.37
2023-02-08T07:15:33.494Z,20.20
2023-02-08T07:18:02.162Z,22.27
2023-02-08T07:20:29.966Z,21.80
2023-02-08T07:22:57.653Z,19.87
2023-02-08T07:25:26.344Z,21.33
2023-02-08T07:27:54.033Z,21.00
2023-02-08T07:30:21.773Z,19.13
2023-02-08T07:32:50.737Z,19.87
2023-02-08T07:35:19.373Z,18.33
2023-02-08T07:37:47.040Z,18.67
2023-02-08T07:40:14.719Z,20.40
2023-02-08T07:42:42.354Z,15.60
2023-02-08T07:45:10.652Z,16.47
2023-02-08T07:47:38.298Z,18.73
2023-02-08T07:50:07.870Z,18.33
2023-02-08T07:52:35.514Z,20.53
2023-02-08T07:55:03.165Z,17.23
2023-02-08T07:57:30.805Z,18.37
2023-02-08T07:59:58.524Z,16.63
2023-02-08T08:02:28.792Z,17.87
2023-02-08T08:04:56.507Z,12.17
2023-02-08T08:07:25.544Z,18.97
2023-02-08T08:09:53.344Z,20.30
2023-02-08T08:12:21.473Z,19.53
2023-02-08T08:14:49.462Z,18.47
2023-02-08T08:17:17.476Z,16.77
2023-02-08T08:19:46.929Z,16.37
2023-02-08T08:22:14.606Z,18.97
2023-02-08T08:24:43.686Z,17.03
2023-02-08T08:27:11.334Z,18.20
2023-02-08T08:29:40.684Z,16.03
2023-02-08T08:32:10.316Z,18.77
2023-02-08T08:34:39.407Z,16.90
2023-02-08T08:37:07.186Z,15.80
2023-02-08T08:39:35.557Z,17.80
2023-02-08T08:42:05.098Z,17.53
2023-02-08T08:44:32.899Z,17.27
2023-02-08T08:47:01.660Z,19.37
2023-02-08T08:49:30.174Z,17.57
2023-02-08T08:51:58.259Z,18.30
2023-02-08T08:54:26.093Z,17.20
2023-02-08T08:56:53.936Z,16.57
2023-02-08T08:59:23.022Z,16.60
2023-02-08T09:01:50.688Z,17.63
2023-02-08T09:04:18.396Z,16.53
2023-02-08T09:06:45.994Z,15.20
2023-02-08T09:09:13.582Z,13.77
2023-02-08T09:11:41.600Z,13.53
2023-02-08T09:14:09.614Z,14.40
2023-02-08T09:16:39.086Z,13.37
2023-02-08T09:19:08.481Z,14.53
2023-02-08T09:21:36.465Z,13.03
2023-02-08T09:24:04.475Z,14.77
2023-02-08T09:26:32.232Z,14.13
2023-02-08T09:29:00.818Z,15.80
2023-02-08T09:31:31.737Z,14.03
2023-02-08T09:34:01.927Z,14.90
2023-02-08T09:36:32.807Z,15.10
2023-02-08T09:39:03.129Z,15.23
2023-02-08T09:41:46.746Z,16.23
2023-02-08T09:44:22.189Z,14.43
2023-02-08T09:46:58.290Z,15.67
2023-02-08T09:49:32.448Z,11.20
2023-02-08T09:52:04.072Z,14.67
2023-02-08T09:54:36.189Z,15.30
2023-02-08T09:57:08.075Z,9.40
2023-02-08T09:59:37.235Z,14.17
2023-02-08T10:02:19.253Z,12.27
2023-02-08T10:04:58.269Z,12.83
2023-02-08T10:07:27.344Z,11.30
2023-02-08T10:09:57.455Z,12.03
2023-02-08T10:12:38.847Z,12.20
2023-02-08T10:15:26.664Z,8.47
2023-02-08T10:18:08.629Z,7.60
2023-02-08T10:20:58.697Z,8.73
2023-02-08T10:23:45.097Z,10.20
2023-02-08T10:26:26.263Z,11.63
2023-02-08T10:29:06.861Z,10.07
2023-02-08T10:31:50.225Z,7.43
2023-02-08T10:34:31.358Z,7.43
2023-02-08T10:37:04.612Z,10.20
2023-02-08T10:39:35.725Z,11.60
2023-02-08T10:42:05.491Z,9.63
2023-02-08T10:44:39.686Z,9.00
2023-02-08T10:47:15.474Z,13.90
2023-02-08T10:49:50.446Z,10.67
2023-02-08T10:52:20.048Z,11.07
2023-02-08T10:54:47.645Z,11.63
2023-02-08T10:57:19.216Z,10.97
2023-02-08T10:59:50.243Z,13.30
2023-02-08T11:02:23.768Z,9.70
2023-02-08T11:05:02.989Z,10.87
2023-02-08T11:07:36.223Z,12.10
2023-02-08T11:10:21.832Z,12.07
2023-02-08T11:12:56.369Z,11.67
2023-02-08T11:15:26.377Z,10.53
2023-02-08T11:17:58.478Z,5.83
2023-02-08T11:20:32.302Z,8.80
2023-02-08T11:23:03.830Z,12.53
2023-02-08T11:25:36.009Z,13.20
2023-02-08T11:28:05.591Z,11.80
2023-02-08T11:30:34.304Z,12.67
2023-02-08T11:33:23.275Z,12.63
2023-02-08T11:35:56.030Z,11.10
2023-02-08T11:38:30.607Z,12.77
2023-02-08T11:41:03.177Z,13.13
2023-02-08T11:43:33.808Z,12.70
2023-02-08T11:46:04.181Z,11.13
2023-02-08T11:48:42.021Z,10.00
2023-02-08T11:51:13.277Z,10.33
2023-02-08T11:53:47.857Z,11.40
2023-02-08T11:56:19.296Z,7.17
2023-02-08T11:59:03.610Z,10.23
2023-02-08T12:01:33.137Z,6.50
2023-02-08T12:04:03.949Z,11.33
2023-02-08T12:06:50.607Z,7.33
2023-02-08T12:09:33.014Z,8.27
2023-02-08T12:12:13.685Z,10.73
2023-02-08T12:14:54.560Z,10.93
2023-02-08T12:17:43.231Z,10.03
2023-02-08T12:20:37.040Z,10.77
2023-02-08T12:23:21.266Z,8.37
2023-02-08T12:25:57.563Z,6.50
2023-02-08T12:28:34.840Z,9.70
2023-02-08T12:31:10.398Z,10.47
2023-02-08T12:33:51.317Z,9.30
2023-02-08T12:36:33.544Z,6.97
2023-02-08T12:39:28.048Z,11.33
2023-02-08T12:42:15.532Z,10.07
2023-02-08T12:45:01.826Z,9.43
2023-02-08T12:47:51.718Z,9.07
2023-02-08T12:50:32.274Z,11.67
2023-02-08T12:53:04.263Z,10.53
2023-02-08T12:55:36.405Z,11.17
2023-02-08T12:58:22.257Z,9.80
2023-02-08T13:00:53.215Z,8.33
2023-02-08T13:03:32.115Z,10.10
2023-02-08T13:06:02.533Z,9.53
2023-02-08T13:08:34.820Z,8.97
2023-02-08T13:11:19.050Z,8.17
2023-02-08T13:13:58.822Z,8.33
2023-02-08T13:16:34.028Z,7.13
2023-02-08T13:19:19.365Z,6.97
2023-02-08T13:21:47.343Z,7.77
2023-02-08T13:24:23.656Z,5.87
2023-02-08T13:26:51.416Z,8.73
2023-02-08T13:29:23.220Z,8.77
2023-02-08T13:31:54.815Z,9.10
2023-02-08T13:34:30.364Z,7.53
2023-02-08T13:37:03.638Z,6.90
2023-02-08T13:39:37.714Z,7.33
2023-02-08T13:42:08.396Z,8.23
2023-02-08T13:44:39.400Z,8.03
2023-02-08T13:47:08.771Z,8.37
2023-02-08T13:49:44.683Z,8.63
2023-02-08T13:52:50.378Z,7.60
2023-02-08T13:55:51.484Z,8.47
2023-02-08T13:59:04.231Z,6.77
2023-02-08T14:01:37.405Z,7.23
2023-02-08T14:04:34.622Z,4.57
2023-02-08T14:07:08.457Z,7.70
2023-02-08T14:09:48.733Z,6.13
2023-02-08T14:12:26.685Z,6.20
2023-02-08T14:15:27.705Z,7.50
2023-02-08T14:17:59.934Z,7.23
2023-02-08T14:20:34.945Z,7.17
2023-02-08T14:23:10.708Z,7.20
2023-02-08T14:25:44.431Z,6.07
2023-02-08T14:28:27.494Z,4.70
2023-02-08T14:30:58.921Z,6.47
2023-02-08T14:33:38.392Z,7.47
2023-02-08T14:36:10.897Z,6.30
2023-02-08T14:38:55.385Z,7.57
2023-02-08T14:41:54.295Z,7.20
2023-02-08T14:44:56.955Z,7.90
2023-02-08T14:47:54.391Z,8.17
2023-02-08T14:50:28.088Z,8.10
2023-02-08T14:53:07.752Z,8.13
2023-02-08T14:55:44.274Z,9.17
2023-02-08T14:58:16.176Z,8.67
2023-02-08T15:00:45.623Z,10.10
2023-02-08T15:03:17.156Z,8.80
2023-02-08T15:06:13.190Z,9.73
2023-02-08T15:08:41.356Z,8.70
2023-02-08T15:11:21.857Z,8.23
2023-02-08T15:13:51.149Z,9.63
2023-02-08T15:16:20.337Z,9.07
2023-02-08T15:18:52.052Z,7.33
2023-02-08T15:21:25.512Z,6.33
2023-02-08T15:24:01.228Z,6.97
2023-02-08T15:26:29.364Z,8.00
2023-02-08T15:29:00.513Z,7.23
2023-02-08T15:31:32.829Z,7.17
2023-02-08T15:34:02.964Z,7.53
2023-02-08T15:36:34.097Z,6.63
2023-02-08T15:39:04.503Z,8.20
2023-02-08T15:41:34.759Z,8.70
2023-02-08T15:44:13.094Z,8.43
2023-02-08T15:46:43.750Z,8.23
2023-02-08T15:49:15.573Z,7.47
2023-02-08T15:51:47.562Z,8.17
2023-02-08T15:54:19.119Z,6.43
2023-02-08T15:56:52.282Z,8.20
2023-02-08T15:59:26.611Z,7.07
2023-02-08T16:01:56.485Z,8.17
2023-02-08T16:04:25.196Z,8.17
2023-02-08T16:06:59.107Z,8.03
2023-02-08T16:09:29.732Z,8.33
2023-02-08T16:12:01.767Z,7.57
2023-02-08T16:14:35.259Z,7.43
2023-02-08T16:17:32.139Z,7.77
2023-02-08T16:19:59.793Z,8.37
2023-02-08T16:22:31.997Z,7.60
2023-02-08T16:25:25.264Z,10.00
2023-02-08T16:27:53.060Z,9.70
2023-02-08T16:30:22.407Z,10.33
2023-02-08T16:32:51.672Z,9.70
2023-02-08T16:35:24.577Z,9.63
2023-02-08T16:38:02.512Z,10.83
2023-02-08T16:40:48.947Z,10.90
2023-02-08T16:43:18.062Z,10.47
2023-02-08T16:45:46.522Z,11.30
2023-02-08T16:48:32.310Z,11.03
2023-02-08T16:51:00.373Z,11.47
2023-02-08T16:53:41.479Z,13.17
2023-02-08T16:56:11.345Z,13.90
2023-02-08T16:58:40.721Z,14.67
2023-02-08T17:01:12.567Z,12.30
2023-02-08T17:03:40.514Z,13.90
2023-02-08T17:06:08.729Z,12.60
2023-02-08T17:08:39.847Z,15.37
2023-02-08T17:11:10.406Z,18.37
2023-02-08T17:13:38.286Z,16.27
2023-02-08T17:16:06.370Z,20.57
2023-02-08T17:18:35.049Z,16.87
2023-02-08T17:21:02.985Z,20.17
2023-02-08T17:23:31.382Z,17.87
2023-02-08T17:26:00.341Z,19.13
2023-02-08T17:28:28.352Z,18.70
2023-02-08T17:30:56.603Z,18.73
2023-02-08T17:33:26.058Z,19.33
2023-02-08T17:35:54.705Z,19.30
2023-02-08T17:38:22.447Z,21.37
2023-02-08T17:40:50.339Z,22.17
2023-02-08T17:43:23.124Z,19.77
2023-02-08T17:45:52.233Z,20.93
2023-02-08T17:48:19.925Z,22.70
2023-02-08T17:50:50.974Z,22.17
2023-02-08T17:53:19.284Z,20.87
2023-02-08T17:55:47.581Z,20.90
2023-02-08T17:58:15.445Z,23.47
2023-02-08T18:00:45.111Z,20.00
2023-02-08T18:03:17.128Z,24.13
2023-02-08T18:05:45.187Z,25.57
2023-02-08T18:08:15.375Z,23.03
2023-02-08T18:10:43.396Z,23.77
2023-02-08T18:13:13.684Z,21.67
2023-02-08T18:15:41.703Z,24.07
2023-02-08T18:18:13.166Z,22.87
2023-02-08T18:20:44.497Z,24.90
2023-02-08T18:23:12.178Z,20.90
2023-02-08T18:25:42.637Z,23.13
2023-02-08T18:28:14.554Z,22.80
2023-02-08T18:30:43.364Z,23.70
2023-02-08T18:33:13.570Z,24.27
2023-02-08T18:35:41.732Z,25.63
2023-02-08T18:38:09.562Z,23.33
2023-02-08T18:40:37.223Z,26.90
2023-02-08T18:43:08.206Z,27.37
2023-02-08T18:45:35.872Z,20.70
2023-02-08T18:48:03.578Z,25.10
2023-02-08T18:50:32.943Z,24.10
2023-02-08T18:53:00.645Z,28.13
2023-02-08T18:55:28.426Z,24.70
2023-02-08T18:57:56.161Z,25.67
2023-02-08T19:00:24.071Z,24.47
2023-02-08T19:02:52.201Z,22.73
2023-02-08T19:05:20.186Z,22.33
2023-02-08T19:07:49.716Z,25.83
2023-02-08T19:10:18.127Z,23.87
2023-02-08T19:12:46.271Z,25.10
2023-02-08T19:15:15.052Z,23.30
2023-02-08T19:17:43.642Z,27.10
2023-02-08T19:20:12.221Z,23.13
2023-02-08T19:22:40.200Z,25.40
2023-02-08T19:25:09.461Z,25.67
2023-02-08T19:27:39.397Z,24.97
2023-02-08T19:30:10.152Z,23.90
2023-02-08T19:32:37.938Z,27.00
2023-02-08T19:35:05.721Z,28.23
2023-02-08T19:37:35.729Z,25.67
2023-02-08T19:40:04.095Z,27.90
2023-02-08T19:42:33.117Z,25.20
2023-02-08T19:45:00.958Z,27.73
2023-02-08T19:47:48.499Z,23.47
2023-02-08T19:50:16.773Z,25.10
2023-02-08T19:52:44.461Z,29.80
2023-02-08T19:55:12.208Z,25.30
2023-02-08T19:57:41.330Z,24.63
2023-02-08T20:00:22.511Z,25.67
2023-02-08T20:02:54.204Z,25.93
2023-02-08T20:05:22.025Z,23.57
2023-02-08T20:07:49.864Z,24.73
2023-02-08T20:10:17.682Z,23.87
2023-02-08T20:12:46.724Z,27.33
2023-02-08T20:15:14.401Z,24.83
2023-02-08T20:17:42.489Z,23.73
2023-02-08T20:20:11.288Z,26.50
2023-02-08T20:22:38.932Z,24.77
2023-02-08T20:25:07.353Z,26.67
2023-02-08T20:27:35.147Z,27.57
2023-02-08T20:30:04.538Z,28.93
2023-02-08T20:32:32.233Z,24.60
2023-02-08T20:35:00.171Z,25.80
2023-02-08T20:37:27.881Z,28.70
2023-02-08T20:39:55.630Z,24.20
2023-02-08T20:42:23.390Z,26.13
2023-02-08T20:44:51.673Z,24.93
2023-02-08T20:47:21.796Z,31.77
2023-02-08T20:49:49.988Z,31.23
2023-02-08T20:52:19.262Z,26.07
2023-02-08T20:54:47.848Z,26.73
2023-02-08T20:57:19.305Z,23.97
2023-02-08T20:59:50.526Z,25.00
2023-02-08T21:02:21.663Z,25.60
2023-02-08T21:04:49.509Z,25.60
2023-02-08T21:07:17.635Z,24.43
2023-02-08T21:09:48.065Z,24.90
2023-02-08T21:12:16.033Z,25.73
2023-02-08T21:14:44.592Z,25.30
2023-02-08T21:17:12.407Z,25.33
2023-02-08T21:19:41.647Z,30.53
2023-02-08T21:22:10.859Z,27.37
2023-02-08T21:24:38.955Z,27.63
2023-02-08T21:27:07.380Z,29.37
2023-02-08T21:29:35.051Z,28.50
2023-02-08T21:32:03.434Z,28.87
2023-02-08T21:34:31.603Z,27.50
2023-02-08T21:37:00.650Z,28.83
2023-02-08T21:39:29.897Z,26.97
2023-02-08T21:41:59.181Z,25.33
2023-02-08T21:44:29.820Z,26.47
2023-02-08T21:46:57.689Z,28.23
2023-02-08T21:49:42.893Z,27.93
2023-02-08T21:52:30.531Z,25.57
2023-02-08T21:55:00.621Z,29.13
2023-02-08T21:57:32.875Z,28.73
2023-02-08T22:00:02.041Z,28.90
2023-02-08T22:02:31.952Z,27.77
2023-02-08T22:05:21.988Z,26.23
2023-02-08T22:07:53.796Z,26.57
2023-02-08T22:10:24.103Z,26.70
2023-02-08T22:12:54.458Z,27.87
2023-02-08T22:15:24.697Z,25.30
2023-02-08T22:17:54.086Z,23.53
2023-02-08T22:20:22.533Z,26.47
2023-02-08T22:22:55.104Z,22.37
2023-02-08T22:25:23.683Z,23.03
2023-02-08T22:27:51.524Z,25.97
2023-02-08T22:30:20.192Z,21.60
2023-02-08T22:32:49.679Z,22.93
2023-02-08T22:35:19.134Z,24.83
2023-02-08T22:37:47.498Z,22.47
2023-02-08T22:40:16.808Z,22.93
2023-02-08T22:42:44.519Z,20.10
2023-02-08T22:45:12.500Z,22.90
2023-02-08T22:47:40.498Z,23.13
2023-02-08T22:50:11.854Z,24.17
2023-02-08T22:52:39.516Z,23.90
2023-02-08T22:55:10.049Z,23.70
2023-02-08T22:57:39.207Z,22.17
2023-02-08T23:00:08.380Z,22.50
2023-02-08T23:02:37.286Z,22.80
2023-02-08T23:05:06.773Z,22.77
2023-02-08T23:07:34.526Z,23.90
2023-02-08T23:10:03.662Z,22.37
2023-02-08T23:12:31.957Z,22.40
2023-02-08T23:15:01.593Z,21.53
2023-02-08T23:17:29.277Z,21.10
2023-02-08T23:19:57.278Z,26.27
2023-02-08T23:22:26.371Z,23.20
2023-02-08T23:24:55.338Z,23.43
2023-02-08T23:27:23.031Z,23.67
2023-02-08T23:29:50.758Z,20.17
2023-02-08T23:32:19.803Z,21.90
2023-02-08T23:34:47.539Z,22.87
2023-02-08T23:37:15.244Z,21.30
2023-02-08T23:39:43.321Z,22.17
2023-02-08T23:42:25.189Z,23.93
2023-02-08T23:44:53.204Z,22.07
2023-02-08T23:47:23.161Z,17.53
2023-02-08T23:49:51.075Z,19.50
2023-02-08T23:52:19.459Z,19.80
2023-02-08T23:54:47.517Z,20.77
2023-02-08T23:57:15.758Z,19.67
2023-02-08T23:59:43.717Z,19.30
